createdAt,value
2023-03-12T00:01:37.905Z,93750.91
2023-03-12T00:03:40.540Z,93762.06
2023-03-12T00:05:42.222Z,93759.66
2023-03-12T00:07:43.646Z,93752.31
2023-03-12T00:09:45.929Z,93768.25
2023-03-12T00:11:47.356Z,93749.59
2023-03-12T00:13:49.845Z,93767.16
2023-03-12T00:15:51.312Z,93796.06
2023-03-12T00:17:52.799Z,93780.94
2023-03-12T00:19:54.377Z,93777.97
2023-03-12T00:21:55.843Z,93781.22
2023-03-12T00:23:57.328Z,93779.59
2023-03-12T00:26:06.142Z,93790.50
2023-03-12T00:28:07.654Z,93788.59
2023-03-12T00:30:10.475Z,93796.47
2023-03-12T00:32:12.003Z,93795.94
2023-03-12T00:34:13.528Z,93809.28
2023-03-12T00:36:15.002Z,93809.97
2023-03-12T00:38:16.499Z,93792.41
2023-03-12T00:40:18.003Z,93806.03
2023-03-12T00:42:19.519Z,93804.25
2023-03-12T00:44:21.286Z,93818.00
2023-03-12T00:46:22.806Z,93801.13
2023-03-12T00:48:25.245Z,93809.41
2023-03-12T00:50:26.833Z,93794.31
2023-03-12T00:52:28.295Z,93810.50
2023-03-12T00:54:29.827Z,93800.72
2023-03-12T00:56:31.619Z,93813.78
2023-03-12T00:58:33.068Z,93808.91
2023-03-12T01:00:34.569Z,93793.22
2023-03-12T01:02:36.531Z,93813.91
2023-03-12T01:04:38.030Z,93806.81
2023-03-12T01:06:58.298Z,93827.53
2023-03-12T01:09:01.167Z,93802.59
2023-03-12T01:11:02.692Z,93811.06
2023-03-12T01:13:04.206Z,93814.19
2023-03-12T01:15:05.966Z,93820.59
2023-03-12T01:17:07.481Z,93824.66
2023-03-12T01:19:08.983Z,93826.44
2023-03-12T01:21:10.567Z,93819.38
2023-03-12T01:23:12.228Z,93839.66
2023-03-12T01:25:13.745Z,93826.72
2023-03-12T01:27:15.301Z,93831.50
2023-03-12T01:29:16.835Z,93824.81
2023-03-12T01:31:21.320Z,93836.53
2023-03-12T01:33:23.134Z,93826.44
2023-03-12T01:35:25.233Z,93849.31
2023-03-12T01:37:27.282Z,93833.75
2023-03-12T01:39:28.816Z,93824.38
2023-03-12T01:41:32.477Z,93825.06
2023-03-12T01:43:34.809Z,93826.13
2023-03-12T01:45:54.620Z,93828.03
2023-03-12T01:47:56.104Z,93835.81
2023-03-12T01:49:57.749Z,93825.59
2023-03-12T01:52:03.775Z,93810.66
2023-03-12T01:54:06.174Z,93827.38
2023-03-12T01:56:08.201Z,93818.00
2023-03-12T01:58:09.676Z,93825.50
2023-03-12T02:00:20.173Z,93823.34
2023-03-12T02:02:27.023Z,93824.28
2023-03-12T02:04:28.550Z,93827.56
2023-03-12T02:06:35.346Z,93827.81
2023-03-12T02:08:37.382Z,93827.41
2023-03-12T02:10:38.855Z,93831.38
2023-03-12T02:12:40.379Z,93836.69
2023-03-12T02:14:41.904Z,93834.34
2023-03-12T02:16:43.677Z,93827.41
2023-03-12T02:18:45.172Z,93830.41
2023-03-12T02:20:46.710Z,93825.66
2023-03-12T02:22:49.826Z,93829.97
2023-03-12T02:24:53.868Z,93846.34
2023-03-12T02:26:55.708Z,93835.16
2023-03-12T02:28:57.319Z,93847.69
2023-03-12T02:31:00.190Z,93844.03
2023-03-12T02:33:02.534Z,93842.78
2023-03-12T02:35:04.477Z,93838.19
2023-03-12T02:37:06.850Z,93843.59
2023-03-12T02:39:09.722Z,93853.44
2023-03-12T02:41:17.435Z,93849.91
2023-03-12T02:43:19.726Z,93860.09
2023-03-12T02:45:21.514Z,93859.97
2023-03-12T02:47:23.047Z,93861.34
2023-03-12T02:49:25.639Z,93868.94
2023-03-12T02:51:27.232Z,93869.38
2023-03-12T02:53:28.945Z,93879.03
2023-03-12T02:55:30.552Z,93878.22
2023-03-12T02:57:32.117Z,93889.38
2023-03-12T02:59:33.601Z,93883.13
2023-03-12T03:01:35.086Z,93884.22
2023-03-12T03:03:36.582Z,93885.03
2023-03-12T03:05:38.022Z,93877.25
2023-03-12T03:07:39.574Z,93872.50
2023-03-12T03:09:41.042Z,93860.78
2023-03-12T03:11:42.541Z,93880.00
2023-03-12T03:13:44.013Z,93875.06
2023-03-12T03:15:45.483Z,93881.19
2023-03-12T03:17:46.979Z,93880.09
2023-03-12T03:19:48.441Z,93874.25
2023-03-12T03:21:49.929Z,93869.88
2023-03-12T03:23:51.601Z,93878.28
2023-03-12T03:25:53.162Z,93875.81
2023-03-12T03:27:54.650Z,93888.63
2023-03-12T03:29:56.145Z,93878.00
2023-03-12T03:31:57.706Z,93863.97
2023-03-12T03:33:59.193Z,93860.63
2023-03-12T03:36:01.375Z,93865.56
2023-03-12T03:38:03.511Z,93863.09
2023-03-12T03:40:05.641Z,93883.22
2023-03-12T03:42:07.191Z,93883.28
2023-03-12T03:44:08.669Z,93884.88
2023-03-12T03:46:10.443Z,93896.38
2023-03-12T03:48:12.372Z,93892.13
2023-03-12T03:50:13.882Z,93900.56
2023-03-12T03:52:15.364Z,93892.41
2023-03-12T03:54:16.879Z,93901.78
2023-03-12T03:56:18.366Z,93897.13
2023-03-12T03:58:19.936Z,93896.59
2023-03-12T04:00:21.937Z,93913.81
2023-03-12T04:02:23.407Z,93921.28
2023-03-12T04:04:24.958Z,93908.88
2023-03-12T04:06:26.488Z,93910.75
2023-03-12T04:08:28.824Z,93918.91
2023-03-12T04:10:30.708Z,93920.69
2023-03-12T04:12:32.227Z,93921.44
2023-03-12T04:14:33.736Z,93912.28
2023-03-12T04:16:35.517Z,93924.28
2023-03-12T04:18:38.721Z,93951.03
2023-03-12T04:20:40.203Z,93934.50
2023-03-12T04:22:41.691Z,93945.88
2023-03-12T04:24:43.201Z,93940.91
2023-03-12T04:26:44.773Z,93945.06
2023-03-12T04:28:46.277Z,93940.72
2023-03-12T04:30:54.727Z,93946.06
2023-03-12T04:32:56.268Z,93957.59
2023-03-12T04:34:58.937Z,93949.22
2023-03-12T04:37:01.175Z,93956.09
2023-03-12T04:39:07.124Z,93945.94
2023-03-12T04:41:12.588Z,93969.13
2023-03-12T04:43:14.308Z,93964.22
2023-03-12T04:45:15.763Z,93974.56
2023-03-12T04:47:17.194Z,93976.16
2023-03-12T04:49:18.771Z,93970.53
2023-03-12T04:51:20.216Z,93977.56
2023-03-12T04:53:22.004Z,93980.94
2023-03-12T04:55:23.562Z,93990.19
2023-03-12T04:57:25.011Z,93988.19
2023-03-12T04:59:26.620Z,93989.38
2023-03-12T05:01:29.290Z,94000.84
2023-03-12T05:03:31.153Z,94000.63
2023-03-12T05:05:32.579Z,93998.56
2023-03-12T05:07:34.086Z,93993.47
2023-03-12T05:09:35.556Z,93998.38
2023-03-12T05:11:39.613Z,94000.66
2023-03-12T05:13:41.429Z,94005.88
2023-03-12T05:15:43.327Z,94008.31
2023-03-12T05:17:44.803Z,94005.19
2023-03-12T05:19:46.297Z,94014.38
2023-03-12T05:21:47.781Z,94005.69
2023-03-12T05:23:49.366Z,94009.88
2023-03-12T05:25:50.852Z,94016.03
2023-03-12T05:27:52.364Z,94014.69
2023-03-12T05:29:53.964Z,94023.81
2023-03-12T05:31:55.586Z,94023.16
2023-03-12T05:33:57.084Z,94022.53
2023-03-12T05:35:58.679Z,94025.44
2023-03-12T05:38:00.279Z,94035.97
2023-03-12T05:40:01.819Z,94040.50
2023-03-12T05:42:03.407Z,94035.38
2023-03-12T05:44:04.934Z,94044.72
2023-03-12T05:46:06.550Z,94039.97
2023-03-12T05:48:07.987Z,94049.31
2023-03-12T05:50:11.351Z,94051.88
2023-03-12T05:52:12.813Z,94048.69
2023-03-12T05:54:14.428Z,94057.25
2023-03-12T05:56:16.713Z,94052.28
2023-03-12T05:58:18.362Z,94047.94
2023-03-12T06:00:19.936Z,94054.94
2023-03-12T06:02:21.448Z,94055.94
2023-03-12T06:04:23.121Z,94075.25
2023-03-12T06:06:24.716Z,94068.13
2023-03-12T06:08:26.242Z,94083.50
2023-03-12T06:10:27.799Z,94078.81
2023-03-12T06:12:29.228Z,94081.66
2023-03-12T06:14:30.867Z,94080.47
2023-03-12T06:16:32.454Z,94070.91
2023-03-12T06:18:34.273Z,94077.81
2023-03-12T06:20:35.795Z,94087.00
2023-03-12T06:22:37.342Z,94087.16
2023-03-12T06:24:38.838Z,94094.16
2023-03-12T06:26:40.740Z,94102.34
2023-03-12T06:28:42.413Z,94098.56
2023-03-12T06:30:43.868Z,94110.16
2023-03-12T06:32:45.531Z,94119.44
2023-03-12T06:34:47.049Z,94121.41
2023-03-12T06:36:48.497Z,94125.13
2023-03-12T06:38:50.092Z,94130.56
2023-03-12T06:40:55.577Z,94126.09
2023-03-12T06:42:57.017Z,94142.28
2023-03-12T06:44:58.466Z,94127.75
2023-03-12T06:46:59.946Z,94136.78
2023-03-12T06:49:01.474Z,94150.34
2023-03-12T06:51:06.088Z,94131.91
2023-03-12T06:53:07.623Z,94156.22
2023-03-12T06:55:09.310Z,94138.78
2023-03-12T06:57:10.851Z,94158.47
2023-03-12T06:59:12.372Z,94150.00
2023-03-12T07:01:13.871Z,94154.22
2023-03-12T07:03:15.444Z,94166.75
2023-03-12T07:05:16.969Z,94182.34
2023-03-12T07:07:20.122Z,94163.44
2023-03-12T07:09:21.787Z,94175.78
2023-03-12T07:11:23.539Z,94174.75
2023-03-12T07:13:25.071Z,94173.56
2023-03-12T07:15:26.527Z,94176.16
2023-03-12T07:17:27.968Z,94177.44
2023-03-12T07:19:30.489Z,94169.78
2023-03-12T07:21:32.077Z,94177.69
2023-03-12T07:23:33.540Z,94186.25
2023-03-12T07:25:36.486Z,94198.44
2023-03-12T07:27:37.996Z,94212.91
2023-03-12T07:29:39.555Z,94200.09
2023-03-12T07:31:41.126Z,94190.50
2023-03-12T07:33:42.839Z,94207.06
2023-03-12T07:35:45.593Z,94196.63
2023-03-12T07:37:47.320Z,94205.16
2023-03-12T07:39:52.361Z,94200.03
2023-03-12T07:41:53.890Z,94203.09
2023-03-12T07:43:55.381Z,94203.50
2023-03-12T07:45:56.986Z,94200.63
2023-03-12T07:47:58.617Z,94216.81
2023-03-12T07:50:01.963Z,94220.38
2023-03-12T07:52:05.067Z,94210.47
2023-03-12T07:54:06.638Z,94209.72
2023-03-12T07:56:08.290Z,94192.19
2023-03-12T07:58:09.947Z,94212.38
2023-03-12T08:00:11.942Z,94200.56
2023-03-12T08:02:13.818Z,94216.72
2023-03-12T08:04:15.478Z,94213.19
2023-03-12T08:06:16.996Z,94217.31
2023-03-12T08:08:18.580Z,94225.81
2023-03-12T08:10:20.739Z,94220.38
2023-03-12T08:12:22.276Z,94216.75
2023-03-12T08:14:23.825Z,94207.38
2023-03-12T08:16:25.369Z,94218.72
2023-03-12T08:18:26.873Z,94228.00
2023-03-12T08:20:28.462Z,94233.13
2023-03-12T08:22:30.026Z,94225.22
2023-03-12T08:24:31.537Z,94223.59
2023-03-12T08:26:33.013Z,94229.66
2023-03-12T08:28:34.556Z,94236.66
2023-03-12T08:30:36.041Z,94248.44
2023-03-12T08:32:37.592Z,94261.81
2023-03-12T08:34:39.211Z,94253.38
2023-03-12T08:36:40.754Z,94240.97
2023-03-12T08:38:42.227Z,94247.00
2023-03-12T08:40:44.593Z,94260.66
2023-03-12T08:42:46.188Z,94252.09
2023-03-12T08:44:47.652Z,94270.13
2023-03-12T08:46:49.133Z,94266.84
2023-03-12T08:48:50.703Z,94267.34
2023-03-12T08:50:54.433Z,94264.34
2023-03-12T08:52:56.339Z,94254.72
2023-03-12T08:54:57.870Z,94263.50
2023-03-12T08:57:00.056Z,94269.03
2023-03-12T08:59:01.503Z,94268.91
2023-03-12T09:01:07.983Z,94277.00
2023-03-12T09:03:12.566Z,94279.81
2023-03-12T09:05:14.556Z,94273.59
2023-03-12T09:07:18.481Z,94274.13
2023-03-12T09:09:19.995Z,94274.59
2023-03-12T09:11:21.465Z,94271.03
2023-03-12T09:13:22.959Z,94269.50
2023-03-12T09:15:24.456Z,94274.50
2023-03-12T09:17:25.989Z,94265.13
2023-03-12T09:19:27.590Z,94261.53
2023-03-12T09:21:29.116Z,94261.13
2023-03-12T09:23:30.649Z,94264.53
2023-03-12T09:25:32.206Z,94257.09
2023-03-12T09:27:37.731Z,94260.31
2023-03-12T09:29:49.670Z,94281.31
2023-03-12T09:31:58.728Z,94262.84
2023-03-12T09:34:00.214Z,94255.59
2023-03-12T09:36:02.326Z,94255.72
2023-03-12T09:38:04.329Z,94267.34
2023-03-12T09:40:07.900Z,94252.84
2023-03-12T09:42:12.262Z,94264.28
2023-03-12T09:44:16.841Z,94274.50
2023-03-12T09:46:20.545Z,94247.47
2023-03-12T09:48:31.044Z,94266.09
2023-03-12T09:50:33.585Z,94280.69
2023-03-12T09:52:58.400Z,94263.88
2023-03-12T09:55:05.582Z,94268.63
2023-03-12T09:57:10.508Z,94246.91
2023-03-12T09:59:12.695Z,94251.88
2023-03-12T10:01:32.792Z,94253.25
2023-03-12T10:03:49.356Z,94251.09
2023-03-12T10:06:07.418Z,94253.41
2023-03-12T10:08:23.530Z,94249.19
2023-03-12T10:10:32.932Z,94245.19
2023-03-12T10:12:40.977Z,94244.13
2023-03-12T10:14:54.840Z,94246.53
2023-03-12T10:17:16.570Z,94253.13
2023-03-12T10:19:24.532Z,94231.41
2023-03-12T10:21:45.018Z,94236.06
2023-03-12T10:23:49.446Z,94242.66
2023-03-12T10:26:00.480Z,94248.22
2023-03-12T10:28:15.859Z,94246.00
2023-03-12T10:30:18.745Z,94246.41
2023-03-12T10:32:22.267Z,94247.94
2023-03-12T10:34:42.399Z,94237.75
2023-03-12T10:36:43.898Z,94256.13
2023-03-12T10:38:45.516Z,94247.53
2023-03-12T10:40:47.081Z,94254.38
2023-03-12T10:42:48.613Z,94238.25
2023-03-12T10:44:54.454Z,94245.47
2023-03-12T10:46:56.023Z,94263.22
2023-03-12T10:49:20.598Z,94271.91
2023-03-12T10:51:22.016Z,94243.97
2023-03-12T10:53:32.400Z,94255.97
2023-03-12T10:55:33.864Z,94244.91
2023-03-12T10:57:41.631Z,94252.97
2023-03-12T10:59:47.719Z,94235.25
2023-03-12T11:01:50.408Z,94230.47
2023-03-12T11:03:52.494Z,94231.06
2023-03-12T11:05:55.071Z,94225.41
2023-03-12T11:07:57.147Z,94237.59
2023-03-12T11:10:04.751Z,94238.47
2023-03-12T11:12:25.025Z,94229.97
2023-03-12T11:14:27.745Z,94217.31
2023-03-12T11:16:32.003Z,94234.19
2023-03-12T11:18:34.829Z,94224.09
2023-03-12T11:20:36.308Z,94221.09
2023-03-12T11:22:37.789Z,94229.59
2023-03-12T11:24:57.651Z,94231.91
2023-03-12T11:27:00.366Z,94215.78
2023-03-12T11:29:17.133Z,94226.63
2023-03-12T11:31:21.504Z,94220.25
2023-03-12T11:33:23.068Z,94223.75
2023-03-12T11:35:43.383Z,94220.97
2023-03-12T11:37:53.759Z,94215.53
2023-03-12T11:40:13.632Z,94223.97
2023-03-12T11:42:15.085Z,94227.19
2023-03-12T11:44:16.502Z,94218.91
2023-03-12T11:46:17.978Z,94213.63
2023-03-12T11:48:31.447Z,94212.13
2023-03-12T11:50:44.892Z,94218.38
2023-03-12T11:52:55.290Z,94215.97
2023-03-12T11:54:59.757Z,94204.84
2023-03-12T11:57:23.199Z,94197.91
2023-03-12T11:59:33.997Z,94207.16
2023-03-12T12:01:54.317Z,94203.06
2023-03-12T12:04:01.753Z,94202.47
2023-03-12T12:06:06.219Z,94208.09
2023-03-12T12:08:16.512Z,94211.72
2023-03-12T12:10:39.771Z,94220.28
2023-03-12T12:12:44.062Z,94220.63
2023-03-12T12:14:48.194Z,94222.56
2023-03-12T12:17:02.125Z,94227.00
2023-03-12T12:19:22.385Z,94228.66
2023-03-12T12:21:39.909Z,94227.16
2023-03-12T12:24:16.370Z,94225.84
2023-03-12T12:26:29.015Z,94214.97
2023-03-12T12:28:34.419Z,94212.94
2023-03-12T12:30:44.644Z,94212.81
2023-03-12T12:33:04.549Z,94225.44
2023-03-12T12:35:15.050Z,94222.78
2023-03-12T12:37:22.043Z,94217.41
2023-03-12T12:39:27.290Z,94222.91
2023-03-12T12:41:30.571Z,94227.50
2023-03-12T12:43:39.073Z,94226.66
2023-03-12T12:45:41.022Z,94219.13
2023-03-12T12:47:44.057Z,94220.31
2023-03-12T12:49:47.074Z,94226.97
2023-03-12T12:51:49.387Z,94225.25
2023-03-12T12:54:05.247Z,94220.78
2023-03-12T12:56:06.690Z,94209.53
2023-03-12T12:58:12.725Z,94218.03
2023-03-12T13:00:26.302Z,94207.25
2023-03-12T13:02:30.066Z,94210.41
2023-03-12T13:04:35.656Z,94204.84
2023-03-12T13:06:55.979Z,94206.06
2023-03-12T13:08:58.599Z,94205.38
2023-03-12T13:11:17.209Z,94211.41
2023-03-12T13:13:20.421Z,94213.22
2023-03-12T13:15:43.910Z,94229.28
2023-03-12T13:17:51.495Z,94225.44
2023-03-12T13:20:01.249Z,94220.50
2023-03-12T13:22:21.586Z,94231.19
2023-03-12T13:24:33.942Z,94231.69
2023-03-12T13:26:38.392Z,94227.16
2023-03-12T13:29:06.082Z,94229.66
2023-03-12T13:31:28.494Z,94236.31
2023-03-12T13:33:36.937Z,94242.03
2023-03-12T13:35:39.355Z,94239.63
2023-03-12T13:38:00.871Z,94239.09
2023-03-12T13:40:05.772Z,94239.59
2023-03-12T13:42:25.340Z,94233.03
2023-03-12T13:44:26.813Z,94228.41
2023-03-12T13:46:28.362Z,94239.41
2023-03-12T13:48:29.857Z,94239.66
2023-03-12T13:50:31.794Z,94239.72
2023-03-12T13:52:33.862Z,94246.41
2023-03-12T13:54:35.461Z,94232.19
2023-03-12T13:56:37.120Z,94248.47
2023-03-12T13:58:42.565Z,94243.97
2023-03-12T14:00:45.113Z,94249.38
2023-03-12T14:02:59.942Z,94251.16
2023-03-12T14:05:05.816Z,94245.44
2023-03-12T14:07:19.521Z,94249.78
2023-03-12T14:09:24.306Z,94245.78
2023-03-12T14:11:44.333Z,94242.50
2023-03-12T14:13:54.987Z,94249.06
2023-03-12T14:16:15.262Z,94257.09
2023-03-12T14:18:23.736Z,94256.03
2023-03-12T14:20:25.245Z,94261.84
2023-03-12T14:22:28.035Z,94254.47
2023-03-12T14:24:33.885Z,94259.63
2023-03-12T14:26:36.454Z,94267.56
2023-03-12T14:28:39.743Z,94257.28
2023-03-12T14:30:44.033Z,94262.34
2023-03-12T14:32:46.399Z,94261.69
2023-03-12T14:34:55.400Z,94263.63
2023-03-12T14:37:16.538Z,94261.47
2023-03-12T14:39:20.783Z,94263.75
2023-03-12T14:41:22.664Z,94263.88
2023-03-12T14:43:28.314Z,94262.00
2023-03-12T14:45:30.122Z,94273.00
2023-03-12T14:47:31.614Z,94274.44
2023-03-12T14:49:38.578Z,94268.25
2023-03-12T14:51:41.372Z,94266.34
2023-03-12T14:53:42.890Z,94281.63
2023-03-12T14:55:44.371Z,94271.50
2023-03-12T14:57:45.951Z,94276.72
2023-03-12T15:00:00.277Z,94283.31
2023-03-12T15:02:10.878Z,94276.84
2023-03-12T15:04:20.008Z,94279.66
2023-03-12T15:06:27.838Z,94277.94
2023-03-12T15:08:29.352Z,94276.13
2023-03-12T15:10:31.120Z,94281.66
2023-03-12T15:12:35.957Z,94278.25
2023-03-12T15:14:39.349Z,94275.66
2023-03-12T15:16:41.508Z,94276.38
2023-03-12T15:18:42.984Z,94284.97
2023-03-12T15:20:44.796Z,94304.47
2023-03-12T15:22:46.569Z,94292.28
2023-03-12T15:24:48.073Z,94293.63
2023-03-12T15:26:49.512Z,94307.41
2023-03-12T15:28:56.938Z,94303.97
2023-03-12T15:31:15.079Z,94306.59
2023-03-12T15:33:16.601Z,94302.25
2023-03-12T15:35:25.061Z,94309.22
2023-03-12T15:37:38.230Z,94312.31
2023-03-12T15:39:39.867Z,94318.03
2023-03-12T15:41:45.629Z,94323.72
2023-03-12T15:43:48.209Z,94334.63
2023-03-12T15:45:56.423Z,94330.91
2023-03-12T15:47:57.929Z,94337.28
2023-03-12T15:50:04.054Z,94334.94
2023-03-12T15:52:07.532Z,94346.66
2023-03-12T15:54:14.882Z,94347.41
2023-03-12T15:56:17.261Z,94344.53
2023-03-12T15:58:29.914Z,94359.44
2023-03-12T16:00:44.504Z,94364.06
2023-03-12T16:02:46.115Z,94373.31
2023-03-12T16:04:47.650Z,94365.25
2023-03-12T16:06:49.502Z,94373.63
2023-03-12T16:08:50.960Z,94372.91
2023-03-12T16:10:53.149Z,94376.06
2023-03-12T16:12:59.955Z,94378.88
2023-03-12T16:15:01.495Z,94374.53
2023-03-12T16:17:02.976Z,94395.09
2023-03-12T16:19:09.247Z,94398.22
2023-03-12T16:21:11.017Z,94398.09
2023-03-12T16:23:12.750Z,94399.56
2023-03-12T16:25:14.350Z,94408.88
2023-03-12T16:27:20.668Z,94407.78
2023-03-12T16:29:31.448Z,94409.16
2023-03-12T16:31:32.968Z,94431.84
2023-03-12T16:33:34.673Z,94432.91
2023-03-12T16:35:36.240Z,94439.75
2023-03-12T16:37:37.710Z,94437.03
2023-03-12T16:39:39.129Z,94439.72
2023-03-12T16:41:40.632Z,94448.34
2023-03-12T16:43:42.395Z,94453.81
2023-03-12T16:45:45.362Z,94445.03
2023-03-12T16:47:55.674Z,94459.09
2023-03-12T16:49:57.833Z,94465.81
2023-03-12T16:51:59.347Z,94459.53
2023-03-12T16:54:10.723Z,94467.34
2023-03-12T16:56:17.209Z,94493.03
2023-03-12T16:58:19.218Z,94483.06
2023-03-12T17:00:24.766Z,94483.19
2023-03-12T17:02:26.339Z,94480.88
2023-03-12T17:04:28.069Z,94501.06
2023-03-12T17:06:29.555Z,94497.78
2023-03-12T17:08:30.997Z,94507.41
2023-03-12T17:10:32.502Z,94514.03
2023-03-12T17:12:36.355Z,94509.72
2023-03-12T17:14:37.986Z,94511.22
2023-03-12T17:16:39.465Z,94509.50
2023-03-12T17:18:41.192Z,94532.41
2023-03-12T17:20:43.017Z,94530.56
2023-03-12T17:22:44.517Z,94534.31
2023-03-12T17:24:47.256Z,94537.25
2023-03-12T17:26:51.968Z,94537.47
2023-03-12T17:28:53.408Z,94543.41
2023-03-12T17:30:55.348Z,94551.34
2023-03-12T17:33:13.205Z,94546.13
2023-03-12T17:35:14.708Z,94558.72
2023-03-12T17:37:16.169Z,94562.06
2023-03-12T17:39:17.713Z,94561.41
2023-03-12T17:41:26.533Z,94566.44
2023-03-12T17:43:28.684Z,94574.72
2023-03-12T17:45:30.246Z,94572.59
2023-03-12T17:47:32.049Z,94573.09
2023-03-12T17:49:33.526Z,94572.75
2023-03-12T17:51:35.015Z,94575.78
2023-03-12T17:53:36.985Z,94575.94
2023-03-12T17:55:38.505Z,94583.06
2023-03-12T17:57:40.850Z,94577.09
2023-03-12T17:59:42.365Z,94586.69
2023-03-12T18:01:43.808Z,94593.28
2023-03-12T18:03:45.536Z,94591.09
2023-03-12T18:05:49.396Z,94591.66
2023-03-12T18:07:51.136Z,94590.41
2023-03-12T18:09:52.843Z,94593.53
2023-03-12T18:11:54.346Z,94593.53
2023-03-12T18:13:55.820Z,94597.50
2023-03-12T18:15:57.832Z,94597.09
2023-03-12T18:18:00.987Z,94596.63
2023-03-12T18:20:09.301Z,94602.97
2023-03-12T18:22:14.204Z,94601.72
2023-03-12T18:24:15.734Z,94605.44
2023-03-12T18:26:17.255Z,94602.44
2023-03-12T18:28:19.336Z,94604.72
2023-03-12T18:30:21.160Z,94609.22
2023-03-12T18:32:22.876Z,94612.25
2023-03-12T18:34:24.434Z,94616.03
2023-03-12T18:36:25.913Z,94618.22
2023-03-12T18:38:27.426Z,94616.44
2023-03-12T18:40:29.187Z,94625.53
2023-03-12T18:42:30.776Z,94627.44
2023-03-12T18:44:32.353Z,94629.00
2023-03-12T18:46:33.919Z,94631.91
2023-03-12T18:48:35.958Z,94631.13
2023-03-12T18:50:37.668Z,94631.53
2023-03-12T18:52:39.352Z,94639.59
2023-03-12T18:54:40.798Z,94642.66
2023-03-12T18:56:42.340Z,94640.88
2023-03-12T18:58:43.789Z,94640.13
2023-03-12T19:00:45.267Z,94634.06
2023-03-12T19:02:48.077Z,94639.00
2023-03-12T19:04:51.342Z,94644.31
2023-03-12T19:06:52.857Z,94648.19
2023-03-12T19:08:54.361Z,94644.81
2023-03-12T19:10:55.842Z,94653.47
2023-03-12T19:12:58.683Z,94658.66
2023-03-12T19:15:01.054Z,94666.44
2023-03-12T19:17:02.660Z,94668.94
2023-03-12T19:19:04.340Z,94670.81
2023-03-12T19:21:08.901Z,94672.09
2023-03-12T19:23:10.458Z,94688.25
2023-03-12T19:25:12.073Z,94677.28
2023-03-12T19:27:13.611Z,94689.31
2023-03-12T19:29:16.516Z,94677.03
2023-03-12T19:31:18.069Z,94678.44
2023-03-12T19:33:19.577Z,94681.63
2023-03-12T19:35:21.129Z,94687.19
2023-03-12T19:37:22.702Z,94693.69
2023-03-12T19:39:24.153Z,94696.53
2023-03-12T19:41:25.582Z,94698.06
2023-03-12T19:43:27.079Z,94704.34
2023-03-12T19:45:28.622Z,94712.94
2023-03-12T19:47:33.213Z,94707.16
2023-03-12T19:49:35.225Z,94711.53
2023-03-12T19:51:36.812Z,94713.53
2023-03-12T19:53:38.429Z,94733.41
2023-03-12T19:55:40.129Z,94723.25
2023-03-12T19:57:41.626Z,94724.59
2023-03-12T19:59:43.163Z,94724.38
2023-03-12T20:01:44.712Z,94735.13
2023-03-12T20:03:46.202Z,94738.53
2023-03-12T20:05:47.737Z,94740.03
2023-03-12T20:07:49.416Z,94739.00
2023-03-12T20:09:51.809Z,94739.69
2023-03-12T20:11:53.276Z,94740.41
2023-03-12T20:13:54.781Z,94742.38
2023-03-12T20:15:56.245Z,94750.31
2023-03-12T20:17:58.446Z,94746.19
2023-03-12T20:20:01.210Z,94750.53
2023-03-12T20:22:02.725Z,94755.00
2023-03-12T20:24:05.208Z,94760.34
2023-03-12T20:26:06.799Z,94760.00
2023-03-12T20:28:08.836Z,94758.22
2023-03-12T20:30:10.686Z,94760.34
2023-03-12T20:32:12.645Z,94762.72
2023-03-12T20:34:14.152Z,94775.78
2023-03-12T20:36:15.695Z,94764.00
2023-03-12T20:38:17.184Z,94772.38
2023-03-12T20:40:18.703Z,94768.72
2023-03-12T20:42:20.230Z,94773.19
2023-03-12T20:44:21.750Z,94772.13
2023-03-12T20:46:23.586Z,94773.56
2023-03-12T20:48:25.145Z,94766.50
2023-03-12T20:50:27.285Z,94773.31
2023-03-12T20:52:28.825Z,94776.16
2023-03-12T20:54:30.349Z,94785.81
2023-03-12T20:56:31.824Z,94784.88
2023-03-12T20:58:33.274Z,94777.81
2023-03-12T21:00:34.862Z,94788.28
2023-03-12T21:02:36.353Z,94785.47
2023-03-12T21:04:37.873Z,94793.09
2023-03-12T21:06:39.391Z,94795.25
2023-03-12T21:08:41.063Z,94788.53
2023-03-12T21:10:42.583Z,94784.75
2023-03-12T21:12:44.089Z,94795.25
2023-03-12T21:14:45.661Z,94795.84
2023-03-12T21:16:47.141Z,94795.13
2023-03-12T21:18:49.072Z,94795.25
2023-03-12T21:20:50.908Z,94796.31
2023-03-12T21:22:52.439Z,94796.53
2023-03-12T21:24:53.896Z,94791.69
2023-03-12T21:26:55.382Z,94800.06
2023-03-12T21:28:56.948Z,94802.19
2023-03-12T21:31:08.103Z,94798.28
2023-03-12T21:33:09.702Z,94797.94
2023-03-12T21:35:11.416Z,94804.63
2023-03-12T21:37:12.960Z,94801.44
2023-03-12T21:39:14.533Z,94800.16
2023-03-12T21:41:16.635Z,94806.16
2023-03-12T21:43:18.106Z,94812.06
2023-03-12T21:45:19.620Z,94804.63
2023-03-12T21:47:21.116Z,94798.28
2023-03-12T21:49:22.806Z,94799.34
2023-03-12T21:51:26.145Z,94797.56
2023-03-12T21:53:27.926Z,94802.75
2023-03-12T21:55:29.393Z,94800.78
2023-03-12T21:57:31.150Z,94805.81
2023-03-12T21:59:32.710Z,94806.66
2023-03-12T22:01:34.547Z,94803.47
2023-03-12T22:03:36.541Z,94805.34
2023-03-12T22:05:38.111Z,94806.78
2023-03-12T22:07:39.663Z,94806.66
2023-03-12T22:09:41.285Z,94805.97
2023-03-12T22:11:42.906Z,94807.00
2023-03-12T22:13:44.621Z,94809.56
2023-03-12T22:15:46.901Z,94813.94
2023-03-12T22:17:48.405Z,94812.25
2023-03-12T22:19:49.875Z,94809.81
2023-03-12T22:21:51.382Z,94809.91
2023-03-12T22:23:53.433Z,94822.97
2023-03-12T22:25:55.067Z,94819.09
2023-03-12T22:27:56.576Z,94814.84
2023-03-12T22:29:58.238Z,94814.47
2023-03-12T22:31:59.768Z,94807.31
2023-03-12T22:34:01.208Z,94816.50
2023-03-12T22:36:06.980Z,94819.88
2023-03-12T22:38:08.471Z,94819.75
2023-03-12T22:40:10.316Z,94815.53
2023-03-12T22:42:11.811Z,94822.69
2023-03-12T22:44:13.371Z,94827.75
2023-03-12T22:46:16.646Z,94829.63
2023-03-12T22:48:18.235Z,94825.06
2023-03-12T22:50:19.803Z,94823.91
2023-03-12T22:52:21.312Z,94825.88
2023-03-12T22:54:22.881Z,94817.31
2023-03-12T22:56:24.599Z,94819.44
2023-03-12T22:58:26.353Z,94818.97
2023-03-12T23:00:27.887Z,94812.50
2023-03-12T23:02:29.453Z,94807.41
2023-03-12T23:04:31.148Z,94812.59
2023-03-12T23:06:32.661Z,94813.84
2023-03-12T23:08:34.386Z,94815.44
2023-03-12T23:10:35.906Z,94820.47
2023-03-12T23:12:37.393Z,94822.72
2023-03-12T23:14:38.929Z,94832.94
2023-03-12T23:16:40.640Z,94833.50
2023-03-12T23:18:43.077Z,94831.16
2023-03-12T23:20:44.655Z,94836.31
2023-03-12T23:22:46.126Z,94841.41
2023-03-12T23:24:47.663Z,94841.78
2023-03-12T23:26:49.184Z,94851.63
2023-03-12T23:28:53.285Z,94854.22
2023-03-12T23:30:55.006Z,94851.63
2023-03-12T23:32:56.621Z,94849.75
2023-03-12T23:34:58.149Z,94850.59
2023-03-12T23:36:59.673Z,94857.53
2023-03-12T23:39:01.395Z,94850.25
2023-03-12T23:41:04.354Z,94856.50
2023-03-12T23:43:05.857Z,94857.19
2023-03-12T23:45:07.576Z,94856.34
2023-03-12T23:47:09.074Z,94856.16
2023-03-12T23:49:11.000Z,94853.44
2023-03-12T23:51:16.418Z,94863.66
2023-03-12T23:53:17.898Z,94865.41
2023-03-12T23:55:19.468Z,94859.41
2023-03-12T23:57:20.962Z,94859.78
2023-03-12T23:59:22.407Z,94857.19
